sensor_id;sensor_type;location;lat;lon;timestamp;P1;P2;P0
69144;PMS7003;56251;50.324;17.574;2023-05-10T00:00:24;17;17;14
69144;PMS7003;56251;50.324;17.574;2023-05-10T00:00:36;17;17;14
69144;PMS7003;56251;50.324;17.574;2023-05-10T00:03:31;16;16;13
69144;PMS7003;56251;50.324;17.574;2023-05-10T00:03:44;16;16;13
69144;PMS7003;56251;50.324;17.574;2023-05-10T00:06:39;17;17;11
69144;PMS7003;56251;50.324;17.574;2023-05-10T00:06:51;17;17;11
69144;PMS7003;56251;50.324;17.574;2023-05-10T00:09:47;18;18;12
69144;PMS7003;56251;50.324;17.574;2023-05-10T00:09:59;18;18;12
69144;PMS7003;56251;50.324;17.574;2023-05-10T00:12:58;13;13;12
69144;PMS7003;56251;50.324;17.574;2023-05-10T00:13:05;13;13;12
69144;PMS7003;56251;50.324;17.574;2023-05-10T00:16:05;16;16;11
69144;PMS7003;56251;50.324;17.574;2023-05-10T00:16:13;16;16;11
69144;PMS7003;56251;50.324;17.574;2023-05-10T00:19:13;12;11;10
69144;PMS7003;56251;50.324;17.574;2023-05-10T00:19:21;12;11;10
69144;PMS7003;56251;50.324;17.574;2023-05-10T00:22:19;14;14;12
69144;PMS7003;56251;50.324;17.574;2023-05-10T00:22:27;14;14;12
69144;PMS7003;56251;50.324;17.574;2023-05-10T00:25:26;12;12;11
69144;PMS7003;56251;50.324;17.574;2023-05-10T00:25:33;12;12;11
69144;PMS7003;56251;50.324;17.574;2023-05-10T00:28:35;17;12;11
69144;PMS7003;56251;50.324;17.574;2023-05-10T00:28:41;17;12;11
69144;PMS7003;56251;50.324;17.574;2023-05-10T00:31:41;11;10;9
69144;PMS7003;56251;50.324;17.574;2023-05-10T00:31:49;11;10;9
69144;PMS7003;56251;50.324;17.574;2023-05-10T00:34:49;13;13;11
69144;PMS7003;56251;50.324;17.574;2023-05-10T00:34:56;13;13;11
69144;PMS7003;56251;50.324;17.574;2023-05-10T00:37:55;13;10;9
69144;PMS7003;56251;50.324;17.574;2023-05-10T00:38:02;13;10;9
69144;PMS7003;56251;50.324;17.574;2023-05-10T00:41:02;14;14;9
69144;PMS7003;56251;50.324;17.574;2023-05-10T00:41:10;14;14;9
69144;PMS7003;56251;50.324;17.574;2023-05-10T00:44:10;13;12;10
69144;PMS7003;56251;50.324;17.574;2023-05-10T00:44:18;13;12;10
69144;PMS7003;56251;50.324;17.574;2023-05-10T00:47:18;10;10;8
69144;PMS7003;56251;50.324;17.574;2023-05-10T00:47:31;16;16;12
69144;PMS7003;56251;50.324;17.574;2023-05-10T00:50:25;10;10;10
69144;PMS7003;56251;50.324;17.574;2023-05-10T00:50:39;10;10;10
69144;PMS7003;56251;50.324;17.574;2023-05-10T00:53:31;14;10;9
69144;PMS7003;56251;50.324;17.574;2023-05-10T00:53:46;14;10;9
69144;PMS7003;56251;50.324;17.574;2023-05-10T00:56:40;12;12;9
69144;PMS7003;56251;50.324;17.574;2023-05-10T00:56:53;12;12;9
69144;PMS7003;56251;50.324;17.574;2023-05-10T00:59:47;11;10;8
69144;PMS7003;56251;50.324;17.574;2023-05-10T01:00:01;11;10;8
69144;PMS7003;56251;50.324;17.574;2023-05-10T01:02:59;20;13;9
69144;PMS7003;56251;50.324;17.574;2023-05-10T01:03:10;20;13;9
69144;PMS7003;56251;50.324;17.574;2023-05-10T01:06:08;10;10;8
69144;PMS7003;56251;50.324;17.574;2023-05-10T01:06:21;13;13;10
69144;PMS7003;56251;50.324;17.574;2023-05-10T01:09:15;15;15;10
69144;PMS7003;56251;50.324;17.574;2023-05-10T01:09:27;15;15;10
69144;PMS7003;56251;50.324;17.574;2023-05-10T01:12:23;18;14;11
69144;PMS7003;56251;50.324;17.574;2023-05-10T01:12:39;18;14;11
69144;PMS7003;56251;50.324;17.574;2023-05-10T01:15:31;10;10;7
69144;PMS7003;56251;50.324;17.574;2023-05-10T01:15:44;10;10;7
69144;PMS7003;56251;50.324;17.574;2023-05-10T01:18:38;11;11;9
69144;PMS7003;56251;50.324;17.574;2023-05-10T01:18:52;11;11;9
69144;PMS7003;56251;50.324;17.574;2023-05-10T01:22:06;15;15;12
69144;PMS7003;56251;50.324;17.574;2023-05-10T01:22:22;15;15;12
69144;PMS7003;56251;50.324;17.574;2023-05-10T01:25:46;15;15;7
69144;PMS7003;56251;50.324;17.574;2023-05-10T01:28:35;15;12;9
69144;PMS7003;56251;50.324;17.574;2023-05-10T01:29:18;15;12;9
69144;PMS7003;56251;50.324;17.574;2023-05-10T01:32:00;8;7;6
69144;PMS7003;56251;50.324;17.574;2023-05-10T01:32:48;12;12;11
69144;PMS7003;56251;50.324;17.574;2023-05-10T01:35:10;10;10;7
69144;PMS7003;56251;50.324;17.574;2023-05-10T01:38:29;8;8;7
69144;PMS7003;56251;50.324;17.574;2023-05-10T01:39:25;11;7;5
69144;PMS7003;56251;50.324;17.574;2023-05-10T01:42:36;10;10;7
69144;PMS7003;56251;50.324;17.574;2023-05-10T01:46:01;17;9;8
69144;PMS7003;56251;50.324;17.574;2023-05-10T01:48:17;13;13;8
69144;PMS7003;56251;50.324;17.574;2023-05-10T01:49:20;12;12;8
69144;PMS7003;56251;50.324;17.574;2023-05-10T01:51:26;9;9;7
69144;PMS7003;56251;50.324;17.574;2023-05-10T01:52:28;9;9;8
69144;PMS7003;56251;50.324;17.574;2023-05-10T01:54:33;13;13;8
69144;PMS7003;56251;50.324;17.574;2023-05-10T01:55:47;11;10;7
69144;PMS7003;56251;50.324;17.574;2023-05-10T01:57:46;17;15;10
69144;PMS7003;56251;50.324;17.574;2023-05-10T01:58:55;6;6;4
69144;PMS7003;56251;50.324;17.574;2023-05-10T02:00:54;7;7;4
69144;PMS7003;56251;50.324;17.574;2023-05-10T02:02:03;11;11;9
69144;PMS7003;56251;50.324;17.574;2023-05-10T02:04:01;7;7;6
69144;PMS7003;56251;50.324;17.574;2023-05-10T02:05:13;10;10;8
69144;PMS7003;56251;50.324;17.574;2023-05-10T02:07:09;7;7;7
69144;PMS7003;56251;50.324;17.574;2023-05-10T02:08:20;15;7;6
69144;PMS7003;56251;50.324;17.574;2023-05-10T02:10:17;8;8;7
69144;PMS7003;56251;50.324;17.574;2023-05-10T02:11:28;8;8;8
69144;PMS7003;56251;50.324;17.574;2023-05-10T02:13:26;11;11;7
69144;PMS7003;56251;50.324;17.574;2023-05-10T02:14:37;7;7;5
69144;PMS7003;56251;50.324;17.574;2023-05-10T02:16:39;9;8;8
69144;PMS7003;56251;50.324;17.574;2023-05-10T02:17:45;13;13;11
69144;PMS7003;56251;50.324;17.574;2023-05-10T02:19:47;10;10;9
69144;PMS7003;56251;50.324;17.574;2023-05-10T02:20:52;10;10;6
69144;PMS7003;56251;50.324;17.574;2023-05-10T02:22:56;10;9;6
69144;PMS7003;56251;50.324;17.574;2023-05-10T02:24:01;17;17;10
69144;PMS7003;56251;50.324;17.574;2023-05-10T02:26:04;20;18;13
69144;PMS7003;56251;50.324;17.574;2023-05-10T02:27:08;19;14;9
69144;PMS7003;56251;50.324;17.574;2023-05-10T02:29:11;13;9;8
69144;PMS7003;56251;50.324;17.574;2023-05-10T02:30:18;13;13;10
69144;PMS7003;56251;50.324;17.574;2023-05-10T02:32:19;12;8;6
69144;PMS7003;56251;50.324;17.574;2023-05-10T02:33:25;11;10;8
69144;PMS7003;56251;50.324;17.574;2023-05-10T02:35:29;15;13;11
69144;PMS7003;56251;50.324;17.574;2023-05-10T02:36:35;9;9;8
69144;PMS7003;56251;50.324;17.574;2023-05-10T02:38:37;13;9;9
69144;PMS7003;56251;50.324;17.574;2023-05-10T02:39:43;11;10;6
69144;PMS7003;56251;50.324;17.574;2023-05-10T02:41:44;13;13;9
69144;PMS7003;56251;50.324;17.574;2023-05-10T02:42:51;9;9;7
69144;PMS7003;56251;50.324;17.574;2023-05-10T02:44:53;15;15;11
69144;PMS7003;56251;50.324;17.574;2023-05-10T02:45:59;14;14;9
69144;PMS7003;56251;50.324;17.574;2023-05-10T02:48:00;12;12;10
69144;PMS7003;56251;50.324;17.574;2023-05-10T02:49:07;11;11;8
69144;PMS7003;56251;50.324;17.574;2023-05-10T02:51:06;12;12;8
69144;PMS7003;56251;50.324;17.574;2023-05-10T02:52:16;17;14;8
69144;PMS7003;56251;50.324;17.574;2023-05-10T02:54:23;11;11;9
69144;PMS7003;56251;50.324;17.574;2023-05-10T02:55:25;8;8;6
69144;PMS7003;56251;50.324;17.574;2023-05-10T02:57:27;11;10;6
69144;PMS7003;56251;50.324;17.574;2023-05-10T02:58:32;9;9;7
69144;PMS7003;56251;50.324;17.574;2023-05-10T03:00:34;13;13;10
69144;PMS7003;56251;50.324;17.574;2023-05-10T03:01:39;8;8;7
69144;PMS7003;56251;50.324;17.574;2023-05-10T03:03:41;11;8;7
69144;PMS7003;56251;50.324;17.574;2023-05-10T03:04:45;11;11;11
69144;PMS7003;56251;50.324;17.574;2023-05-10T03:06:48;10;10;7
69144;PMS7003;56251;50.324;17.574;2023-05-10T03:07:52;16;15;12
69144;PMS7003;56251;50.324;17.574;2023-05-10T03:09:55;20;15;12
69144;PMS7003;56251;50.324;17.574;2023-05-10T03:11:11;19;15;11
69144;PMS7003;56251;50.324;17.574;2023-05-10T03:14:32;11;11;10
69144;PMS7003;56251;50.324;17.574;2023-05-10T03:16:27;23;18;10
69144;PMS7003;56251;50.324;17.574;2023-05-10T03:19:39;16;16;13
69144;PMS7003;56251;50.324;17.574;2023-05-10T03:20:48;14;14;11
69144;PMS7003;56251;50.324;17.574;2023-05-10T03:22:50;12;12;9
69144;PMS7003;56251;50.324;17.574;2023-05-10T03:23:59;21;21;15
69144;PMS7003;56251;50.324;17.574;2023-05-10T03:25:54;15;15;12
69144;PMS7003;56251;50.324;17.574;2023-05-10T03:27:06;31;26;15
69144;PMS7003;56251;50.324;17.574;2023-05-10T03:29:01;23;16;13
69144;PMS7003;56251;50.324;17.574;2023-05-10T03:30:14;11;11;10
69144;PMS7003;56251;50.324;17.574;2023-05-10T03:32:09;20;16;11
69144;PMS7003;56251;50.324;17.574;2023-05-10T03:33:21;18;18;11
69144;PMS7003;56251;50.324;17.574;2023-05-10T03:35:16;17;17;13
69144;PMS7003;56251;50.324;17.574;2023-05-10T03:36:27;20;16;11
69144;PMS7003;56251;50.324;17.574;2023-05-10T03:38:22;26;20;16
69144;PMS7003;56251;50.324;17.574;2023-05-10T03:39:33;17;17;13
69144;PMS7003;56251;50.324;17.574;2023-05-10T03:41:29;14;14;11
69144;PMS7003;56251;50.324;17.574;2023-05-10T03:42:41;9;9;7
69144;PMS7003;56251;50.324;17.574;2023-05-10T03:44:36;19;12;10
69144;PMS7003;56251;50.324;17.574;2023-05-10T03:45:47;15;14;12
69144;PMS7003;56251;50.324;17.574;2023-05-10T03:47:44;15;15;12
69144;PMS7003;56251;50.324;17.574;2023-05-10T03:48:55;10;9;5
69144;PMS7003;56251;50.324;17.574;2023-05-10T03:50:50;9;9;5
69144;PMS7003;56251;50.324;17.574;2023-05-10T03:52:01;19;10;8
69144;PMS7003;56251;50.324;17.574;2023-05-10T03:53:56;13;9;7
69144;PMS7003;56251;50.324;17.574;2023-05-10T03:55:09;16;15;12
69144;PMS7003;56251;50.324;17.574;2023-05-10T03:57:02;13;13;10
69144;PMS7003;56251;50.324;17.574;2023-05-10T03:58:17;13;8;6
69144;PMS7003;56251;50.324;17.574;2023-05-10T04:00:09;8;8;7
69144;PMS7003;56251;50.324;17.574;2023-05-10T04:01:25;22;14;12
69144;PMS7003;56251;50.324;17.574;2023-05-10T04:03:18;12;12;7
69144;PMS7003;56251;50.324;17.574;2023-05-10T04:04:31;9;9;8
69144;PMS7003;56251;50.324;17.574;2023-05-10T04:06:25;12;5;5
69144;PMS7003;56251;50.324;17.574;2023-05-10T04:07:45;21;18;10
69144;PMS7003;56251;50.324;17.574;2023-05-10T04:09:32;10;8;7
69144;PMS7003;56251;50.324;17.574;2023-05-10T04:10:53;12;11;7
69144;PMS7003;56251;50.324;17.574;2023-05-10T04:12:39;13;7;6
69144;PMS7003;56251;50.324;17.574;2023-05-10T04:14:01;14;11;10
69144;PMS7003;56251;50.324;17.574;2023-05-10T04:15:46;11;11;8
69144;PMS7003;56251;50.324;17.574;2023-05-10T04:17:08;12;12;11
69144;PMS7003;56251;50.324;17.574;2023-05-10T04:18:52;10;9;7
69144;PMS7003;56251;50.324;17.574;2023-05-10T04:20:16;8;7;6
69144;PMS7003;56251;50.324;17.574;2023-05-10T04:21:59;12;12;10
69144;PMS7003;56251;50.324;17.574;2023-05-10T04:23:22;11;11;7
69144;PMS7003;56251;50.324;17.574;2023-05-10T04:25:06;9;9;8
69144;PMS7003;56251;50.324;17.574;2023-05-10T04:26:28;9;9;7
69144;PMS7003;56251;50.324;17.574;2023-05-10T04:28:14;14;14;10
69144;PMS7003;56251;50.324;17.574;2023-05-10T04:29:35;14;13;11
69144;PMS7003;56251;50.324;17.574;2023-05-10T04:31:22;12;12;10
69144;PMS7003;56251;50.324;17.574;2023-05-10T04:32:41;10;8;7
69144;PMS7003;56251;50.324;17.574;2023-05-10T04:34:29;14;9;7
69144;PMS7003;56251;50.324;17.574;2023-05-10T04:35:47;14;14;11
69144;PMS7003;56251;50.324;17.574;2023-05-10T04:37:42;12;10;7
69144;PMS7003;56251;50.324;17.574;2023-05-10T04:38:55;11;11;9
69144;PMS7003;56251;50.324;17.574;2023-05-10T04:40:50;13;13;10
69144;PMS7003;56251;50.324;17.574;2023-05-10T04:42:02;12;12;11
69144;PMS7003;56251;50.324;17.574;2023-05-10T04:43:58;10;10;7
69144;PMS7003;56251;50.324;17.574;2023-05-10T04:45:11;14;12;9
69144;PMS7003;56251;50.324;17.574;2023-05-10T04:47:05;9;9;9
69144;PMS7003;56251;50.324;17.574;2023-05-10T04:48:17;14;14;13
69144;PMS7003;56251;50.324;17.574;2023-05-10T04:50:11;9;9;8
69144;PMS7003;56251;50.324;17.574;2023-05-10T04:51:24;11;11;8
69144;PMS7003;56251;50.324;17.574;2023-05-10T04:53:19;1;1;0
69144;PMS7003;56251;50.324;17.574;2023-05-10T04:54:31;8;8;7
69144;PMS7003;56251;50.324;17.574;2023-05-10T04:56:26;9;9;7
69144;PMS7003;56251;50.324;17.574;2023-05-10T04:57:39;7;7;6
69144;PMS7003;56251;50.324;17.574;2023-05-10T04:59:35;11;11;10
69144;PMS7003;56251;50.324;17.574;2023-05-10T05:00:45;9;9;7
69144;PMS7003;56251;50.324;17.574;2023-05-10T05:02:42;9;9;7
69144;PMS7003;56251;50.324;17.574;2023-05-10T05:03:53;12;10;7
69144;PMS7003;56251;50.324;17.574;2023-05-10T05:05:50;14;9;9
69144;PMS7003;56251;50.324;17.574;2023-05-10T05:06:59;12;12;10
69144;PMS7003;56251;50.324;17.574;2023-05-10T05:08:56;14;14;12
69144;PMS7003;56251;50.324;17.574;2023-05-10T05:10:06;10;10;8
69144;PMS7003;56251;50.324;17.574;2023-05-10T05:12:02;11;11;8
69144;PMS7003;56251;50.324;17.574;2023-05-10T05:13:14;8;8;6
69144;PMS7003;56251;50.324;17.574;2023-05-10T05:15:09;8;8;7
69144;PMS7003;56251;50.324;17.574;2023-05-10T05:16:21;10;10;8
69144;PMS7003;56251;50.324;17.574;2023-05-10T05:18:16;15;15;13
69144;PMS7003;56251;50.324;17.574;2023-05-10T05:19:30;13;13;11
69144;PMS7003;56251;50.324;17.574;2023-05-10T05:21:22;12;12;7
69144;PMS7003;56251;50.324;17.574;2023-05-10T05:22:36;14;14;14
69144;PMS7003;56251;50.324;17.574;2023-05-10T05:24:34;13;13;11
69144;PMS7003;56251;50.324;17.574;2023-05-10T05:25:43;13;11;8
69144;PMS7003;56251;50.324;17.574;2023-05-10T05:27:39;11;11;10
69144;PMS7003;56251;50.324;17.574;2023-05-10T05:28:50;13;13;8
69144;PMS7003;56251;50.324;17.574;2023-05-10T05:30:45;12;12;9
69144;PMS7003;56251;50.324;17.574;2023-05-10T05:31:58;10;10;6
69144;PMS7003;56251;50.324;17.574;2023-05-10T05:33:51;13;13;12
69144;PMS7003;56251;50.324;17.574;2023-05-10T05:35:06;15;15;11
69144;PMS7003;56251;50.324;17.574;2023-05-10T05:36:59;10;10;7
69144;PMS7003;56251;50.324;17.574;2023-05-10T05:38:13;15;10;8
69144;PMS7003;56251;50.324;17.574;2023-05-10T05:40:07;7;7;6
69144;PMS7003;56251;50.324;17.574;2023-05-10T05:41:19;15;12;11
69144;PMS7003;56251;50.324;17.574;2023-05-10T05:43:15;12;12;8
69144;PMS7003;56251;50.324;17.574;2023-05-10T05:44:33;10;9;7
69144;PMS7003;56251;50.324;17.574;2023-05-10T05:46:21;10;10;8
69144;PMS7003;56251;50.324;17.574;2023-05-10T05:47:40;8;8;7
69144;PMS7003;56251;50.324;17.574;2023-05-10T05:49:29;6;6;6
69144;PMS7003;56251;50.324;17.574;2023-05-10T05:50:46;9;9;6
69144;PMS7003;56251;50.324;17.574;2023-05-10T05:52:35;9;9;7
69144;PMS7003;56251;50.324;17.574;2023-05-10T05:53:52;9;9;9
69144;PMS7003;56251;50.324;17.574;2023-05-10T05:56:00;7;7;7
69144;PMS7003;56251;50.324;17.574;2023-05-10T05:56:59;8;8;6
69144;PMS7003;56251;50.324;17.574;2023-05-10T05:59:01;7;7;5
69144;PMS7003;56251;50.324;17.574;2023-05-10T06:00:06;5;5;5
69144;PMS7003;56251;50.324;17.574;2023-05-10T06:02:12;5;5;4
69144;PMS7003;56251;50.324;17.574;2023-05-10T06:03:18;6;6;5
69144;PMS7003;56251;50.324;17.574;2023-05-10T06:05:18;6;6;5
69144;PMS7003;56251;50.324;17.574;2023-05-10T06:06:26;10;8;8
69144;PMS7003;56251;50.324;17.574;2023-05-10T06:08:26;8;8;6
69144;PMS7003;56251;50.324;17.574;2023-05-10T06:09:33;10;10;5
69144;PMS7003;56251;50.324;17.574;2023-05-10T06:11:34;7;6;5
69144;PMS7003;56251;50.324;17.574;2023-05-10T06:12:40;6;6;6
69144;PMS7003;56251;50.324;17.574;2023-05-10T06:14:40;6;6;4
69144;PMS7003;56251;50.324;17.574;2023-05-10T06:15:46;6;6;6
69144;PMS7003;56251;50.324;17.574;2023-05-10T06:17:48;10;10;9
69144;PMS7003;56251;50.324;17.574;2023-05-10T06:18:53;6;6;5
69144;PMS7003;56251;50.324;17.574;2023-05-10T06:20:59;5;5;5
69144;PMS7003;56251;50.324;17.574;2023-05-10T06:22:05;7;7;6
69144;PMS7003;56251;50.324;17.574;2023-05-10T06:24:07;4;4;4
69144;PMS7003;56251;50.324;17.574;2023-05-10T06:25:12;8;8;6
69144;PMS7003;56251;50.324;17.574;2023-05-10T06:27:15;7;7;6
69144;PMS7003;56251;50.324;17.574;2023-05-10T06:28:20;7;7;6
69144;PMS7003;56251;50.324;17.574;2023-05-10T06:30:21;8;8;7
69144;PMS7003;56251;50.324;17.574;2023-05-10T06:31:27;6;5;4
69144;PMS7003;56251;50.324;17.574;2023-05-10T06:33:29;8;8;7
69144;PMS7003;56251;50.324;17.574;2023-05-10T06:34:35;8;8;5
69144;PMS7003;56251;50.324;17.574;2023-05-10T06:36:35;6;6;5
69144;PMS7003;56251;50.324;17.574;2023-05-10T06:37:43;4;4;3
69144;PMS7003;56251;50.324;17.574;2023-05-10T06:39:47;8;8;7
69144;PMS7003;56251;50.324;17.574;2023-05-10T06:40:53;17;7;7
69144;PMS7003;56251;50.324;17.574;2023-05-10T06:42:53;8;6;6
69144;PMS7003;56251;50.324;17.574;2023-05-10T06:43:59;3;3;2
69144;PMS7003;56251;50.324;17.574;2023-05-10T06:46:01;4;4;3
69144;PMS7003;56251;50.324;17.574;2023-05-10T06:47:05;11;11;6
69144;PMS7003;56251;50.324;17.574;2023-05-10T06:49:07;8;8;7
69144;PMS7003;56251;50.324;17.574;2023-05-10T06:50:12;6;5;4
69144;PMS7003;56251;50.324;17.574;2023-05-10T06:52:14;7;7;5
69144;PMS7003;56251;50.324;17.574;2023-05-10T06:53:19;5;5;4
69144;PMS7003;56251;50.324;17.574;2023-05-10T06:55:20;4;4;3
69144;PMS7003;56251;50.324;17.574;2023-05-10T06:56:25;4;4;4
69144;PMS7003;56251;50.324;17.574;2023-05-10T06:58:26;6;6;5
69144;PMS7003;56251;50.324;17.574;2023-05-10T06:59:33;7;7;6
69144;PMS7003;56251;50.324;17.574;2023-05-10T07:01:34;10;10;7
69144;PMS7003;56251;50.324;17.574;2023-05-10T07:02:39;9;9;7
69144;PMS7003;56251;50.324;17.574;2023-05-10T07:04:42;9;9;7
69144;PMS7003;56251;50.324;17.574;2023-05-10T07:05:47;9;9;8
69144;PMS7003;56251;50.324;17.574;2023-05-10T07:07:48;7;7;6
69144;PMS7003;56251;50.324;17.574;2023-05-10T07:08:53;7;5;5
69144;PMS7003;56251;50.324;17.574;2023-05-10T07:10:59;8;8;7
69144;PMS7003;56251;50.324;17.574;2023-05-10T07:11:59;7;7;4
69144;PMS7003;56251;50.324;17.574;2023-05-10T07:14:13;7;6;6
69144;PMS7003;56251;50.324;17.574;2023-05-10T07:15:13;4;4;4
69144;PMS7003;56251;50.324;17.574;2023-05-10T07:17:25;5;5;4
69144;PMS7003;56251;50.324;17.574;2023-05-10T07:18:20;5;5;4
69144;PMS7003;56251;50.324;17.574;2023-05-10T07:20:31;7;7;6
69144;PMS7003;56251;50.324;17.574;2023-05-10T07:21:26;8;8;7
69144;PMS7003;56251;50.324;17.574;2023-05-10T07:23:39;9;9;7
69144;PMS7003;56251;50.324;17.574;2023-05-10T07:24:35;11;11;7
69144;PMS7003;56251;50.324;17.574;2023-05-10T07:26:45;6;6;4
69144;PMS7003;56251;50.324;17.574;2023-05-10T07:27:41;8;8;7
69144;PMS7003;56251;50.324;17.574;2023-05-10T07:29:51;6;6;4
69144;PMS7003;56251;50.324;17.574;2023-05-10T07:30:47;8;8;7
69144;PMS7003;56251;50.324;17.574;2023-05-10T07:32:57;6;6;5
69144;PMS7003;56251;50.324;17.574;2023-05-10T07:33:58;5;5;5
69144;PMS7003;56251;50.324;17.574;2023-05-10T07:36:04;8;8;7
69144;PMS7003;56251;50.324;17.574;2023-05-10T07:37:06;5;5;4
69144;PMS7003;56251;50.324;17.574;2023-05-10T07:39:10;8;8;6
69144;PMS7003;56251;50.324;17.574;2023-05-10T07:40:12;6;6;5
69144;PMS7003;56251;50.324;17.574;2023-05-10T07:42:18;6;6;5
69144;PMS7003;56251;50.324;17.574;2023-05-10T07:43:20;9;9;6
69144;PMS7003;56251;50.324;17.574;2023-05-10T07:45:26;8;8;7
69144;PMS7003;56251;50.324;17.574;2023-05-10T07:46:26;6;6;5
69144;PMS7003;56251;50.324;17.574;2023-05-10T07:48:33;9;8;7
69144;PMS7003;56251;50.324;17.574;2023-05-10T07:49:34;8;8;7
69144;PMS7003;56251;50.324;17.574;2023-05-10T07:51:43;6;6;5
69144;PMS7003;56251;50.324;17.574;2023-05-10T07:52:41;6;6;5
69144;PMS7003;56251;50.324;17.574;2023-05-10T07:54:49;5;4;4
69144;PMS7003;56251;50.324;17.574;2023-05-10T07:55:51;12;7;6
69144;PMS7003;56251;50.324;17.574;2023-05-10T07:57:56;4;4;3
69144;PMS7003;56251;50.324;17.574;2023-05-10T07:58:59;3;3;2
69144;PMS7003;56251;50.324;17.574;2023-05-10T08:01:04;7;7;6
69144;PMS7003;56251;50.324;17.574;2023-05-10T08:02:05;7;7;6
69144;PMS7003;56251;50.324;17.574;2023-05-10T08:04:10;4;4;3
69144;PMS7003;56251;50.324;17.574;2023-05-10T08:05:12;3;3;3
69144;PMS7003;56251;50.324;17.574;2023-05-10T08:07:18;7;7;5
69144;PMS7003;56251;50.324;17.574;2023-05-10T08:08:20;6;6;5
69144;PMS7003;56251;50.324;17.574;2023-05-10T08:10:24;5;5;5
69144;PMS7003;56251;50.324;17.574;2023-05-10T08:11:29;9;7;4
69144;PMS7003;56251;50.324;17.574;2023-05-10T08:13:30;8;8;6
69144;PMS7003;56251;50.324;17.574;2023-05-10T08:14:35;4;4;3
69144;PMS7003;56251;50.324;17.574;2023-05-10T08:16:37;7;7;5
69144;PMS7003;56251;50.324;17.574;2023-05-10T08:17:45;6;6;6
69144;PMS7003;56251;50.324;17.574;2023-05-10T08:19:44;4;4;3
69144;PMS7003;56251;50.324;17.574;2023-05-10T08:20:51;9;8;8
69144;PMS7003;56251;50.324;17.574;2023-05-10T08:22:50;8;8;6
69144;PMS7003;56251;50.324;17.574;2023-05-10T08:23:57;6;6;6
69144;PMS7003;56251;50.324;17.574;2023-05-10T08:25:56;5;5;5
69144;PMS7003;56251;50.324;17.574;2023-05-10T08:27:05;13;13;11
69144;PMS7003;56251;50.324;17.574;2023-05-10T08:29:03;12;12;9
69144;PMS7003;56251;50.324;17.574;2023-05-10T08:30:11;19;14;12
69144;PMS7003;56251;50.324;17.574;2023-05-10T08:32:10;8;8;7
69144;PMS7003;56251;50.324;17.574;2023-05-10T08:33:18;7;7;7
69144;PMS7003;56251;50.324;17.574;2023-05-10T08:35:17;7;7;5
69144;PMS7003;56251;50.324;17.574;2023-05-10T08:36:24;6;6;5
69144;PMS7003;56251;50.324;17.574;2023-05-10T08:38:23;6;6;5
69144;PMS7003;56251;50.324;17.574;2023-05-10T08:39:35;16;9;8
69144;PMS7003;56251;50.324;17.574;2023-05-10T08:41:37;6;6;6
69144;PMS7003;56251;50.324;17.574;2023-05-10T08:42:48;3;3;3
69144;PMS7003;56251;50.324;17.574;2023-05-10T08:44:45;7;7;5
69144;PMS7003;56251;50.324;17.574;2023-05-10T08:45:53;12;8;6
69144;PMS7003;56251;50.324;17.574;2023-05-10T08:47:53;4;4;3
69144;PMS7003;56251;50.324;17.574;2023-05-10T08:49:02;2;2;2
69144;PMS7003;56251;50.324;17.574;2023-05-10T08:51:00;7;7;5
69144;PMS7003;56251;50.324;17.574;2023-05-10T08:52:09;4;4;4
69144;PMS7003;56251;50.324;17.574;2023-05-10T08:54:09;4;4;4
69144;PMS7003;56251;50.324;17.574;2023-05-10T08:55:17;6;4;4
69144;PMS7003;56251;50.324;17.574;2023-05-10T08:57:16;15;11;5
69144;PMS7003;56251;50.324;17.574;2023-05-10T08:58:24;6;6;5
69144;PMS7003;56251;50.324;17.574;2023-05-10T09:00:28;5;5;5
69144;PMS7003;56251;50.324;17.574;2023-05-10T09:01:35;4;3;3
69144;PMS7003;56251;50.324;17.574;2023-05-10T09:03:37;7;7;7
69144;PMS7003;56251;50.324;17.574;2023-05-10T09:04:42;5;5;5
69144;PMS7003;56251;50.324;17.574;2023-05-10T09:06:45;4;4;4
69144;PMS7003;56251;50.324;17.574;2023-05-10T09:07:50;6;6;5
69144;PMS7003;56251;50.324;17.574;2023-05-10T09:09:52;7;7;6
69144;PMS7003;56251;50.324;17.574;2023-05-10T09:10:57;4;4;4
69144;PMS7003;56251;50.324;17.574;2023-05-10T09:13:01;2;2;1
69144;PMS7003;56251;50.324;17.574;2023-05-10T09:14:05;13;13;9
69144;PMS7003;56251;50.324;17.574;2023-05-10T09:16:09;7;7;7
69144;PMS7003;56251;50.324;17.574;2023-05-10T09:17:12;10;3;3
69144;PMS7003;56251;50.324;17.574;2023-05-10T09:19:18;3;3;3
69144;PMS7003;56251;50.324;17.574;2023-05-10T09:20:24;6;6;5
69144;PMS7003;56251;50.324;17.574;2023-05-10T09:22:26;5;5;4
69144;PMS7003;56251;50.324;17.574;2023-05-10T09:23:35;10;10;9
69144;PMS7003;56251;50.324;17.574;2023-05-10T09:25:34;3;3;3
69144;PMS7003;56251;50.324;17.574;2023-05-10T09:26:48;3;3;3
69144;PMS7003;56251;50.324;17.574;2023-05-10T09:28:53;6;3;3
69144;PMS7003;56251;50.324;17.574;2023-05-10T09:29:55;4;4;4
69144;PMS7003;56251;50.324;17.574;2023-05-10T09:32:04;5;5;5
69144;PMS7003;56251;50.324;17.574;2023-05-10T09:33:03;4;4;4
69144;PMS7003;56251;50.324;17.574;2023-05-10T09:35:15;7;7;7
69144;PMS7003;56251;50.324;17.574;2023-05-10T09:36:10;8;8;5
69144;PMS7003;56251;50.324;17.574;2023-05-10T09:38:22;5;5;5
69144;PMS7003;56251;50.324;17.574;2023-05-10T09:39:17;6;6;6
69144;PMS7003;56251;50.324;17.574;2023-05-10T09:41:30;4;3;3
69144;PMS7003;56251;50.324;17.574;2023-05-10T09:42:25;4;3;3
69144;PMS7003;56251;50.324;17.574;2023-05-10T09:44:36;5;5;5
69144;PMS7003;56251;50.324;17.574;2023-05-10T09:45:32;4;4;3
69144;PMS7003;56251;50.324;17.574;2023-05-10T09:47:45;4;4;3
69144;PMS7003;56251;50.324;17.574;2023-05-10T09:48:43;5;5;4
69144;PMS7003;56251;50.324;17.574;2023-05-10T09:50:58;2;2;2
69144;PMS7003;56251;50.324;17.574;2023-05-10T09:51:59;5;5;4
69144;PMS7003;56251;50.324;17.574;2023-05-10T09:54:14;5;5;5
69144;PMS7003;56251;50.324;17.574;2023-05-10T09:55:12;3;3;3
69144;PMS7003;56251;50.324;17.574;2023-05-10T09:57:23;3;3;3
69144;PMS7003;56251;50.324;17.574;2023-05-10T09:58:20;3;3;2
69144;PMS7003;56251;50.324;17.574;2023-05-10T10:00:35;4;4;4
69144;PMS7003;56251;50.324;17.574;2023-05-10T10:01:26;5;5;5
69144;PMS7003;56251;50.324;17.574;2023-05-10T10:03:48;6;6;5
69144;PMS7003;56251;50.324;17.574;2023-05-10T10:04:32;6;6;5
69144;PMS7003;56251;50.324;17.574;2023-05-10T10:07:00;5;5;4
69144;PMS7003;56251;50.324;17.574;2023-05-10T10:07:41;5;5;4
69144;PMS7003;56251;50.324;17.574;2023-05-10T10:10:07;5;5;5
69144;PMS7003;56251;50.324;17.574;2023-05-10T10:10:47;4;4;4
69144;PMS7003;56251;50.324;17.574;2023-05-10T10:13:18;5;3;3
69144;PMS7003;56251;50.324;17.574;2023-05-10T10:13:55;3;3;3
69144;PMS7003;56251;50.324;17.574;2023-05-10T10:16:26;4;4;4
69144;PMS7003;56251;50.324;17.574;2023-05-10T10:17:02;14;13;12
69144;PMS7003;56251;50.324;17.574;2023-05-10T10:19:33;5;5;5
69144;PMS7003;56251;50.324;17.574;2023-05-10T10:20:09;5;5;5
69144;PMS7003;56251;50.324;17.574;2023-05-10T10:22:40;3;3;3